Isabel L — WDF6141 — position and weather

sailwx.info

Track history (hours):
 
Tides and Currents Weather Stations Pressure Air Temp Water Temp Dewpoint Dewpoint Depression Visibility Wind Speed Wind Dir Waves Ship Positions

Isabel L

Owner: SO CAL SHIP SERVICES, TERMINAL ISLAND, CA. More information available from US FCC via Universal Licensing System and Coast Guard Vessel Documentation Center.

Last reported at 2017-Dec-11 15:52 UTC. Time now 2017-Dec-12 18:11 UTC.
Position N 33°43' W 118°07'.

Length 28 m; draft 2 m.

Type: Ship (hazmat cat B). MMSI: 367471080.

Date/timePositionNaut miles runAvg speedWind from/ knotsBaromVisibWave heightAir tempDewpointWater temp
2017-Dec-11 15:52N 33°43' W 118°07'411.8
2017-Dec-11 15:30N 33°40' W 118°04'3 0.3
2017-Dec-11 03:14N 33°40' W 118°07'416.0
2017-Dec-11 03:00N 33°36' W 118°08'5 0.2
2017-Dec-09 16:33N 33°40' W 118°04'313.5
2017-Dec-09 16:18N 33°37' W 118°06'2 7.9
2017-Dec-09 16:01N 33°36' W 118°09'0 0.0
2017-Dec-09 15:04N 33°36' W 118°09'6 4.8
2017-Dec-09 13:53N 33°40' W 118°04'4 4.1
2017-Dec-09 12:53N 33°43' W 118°07'0 0.0
2017-Dec-09 12:10N 33°43' W 118°07'0 0.0
2017-Dec-09 09:30N 33°43' W 118°07'0 0.1
2017-Dec-09 09:00N 33°43' W 118°07'0 0.1
2017-Dec-09 08:30N 33°43' W 118°07'0 0.0
2017-Dec-09 08:00N 33°43' W 118°07'0 0.1
2017-Dec-09 07:31N 33°43' W 118°07'0 0.0
2017-Dec-09 07:01N 33°43' W 118°07'0 0.0
2017-Dec-09 06:30N 33°43' W 118°07'8 0.8
2017-Dec-08 20:31N 33°36' W 118°09'0 0.0
2017-Dec-08 20:30N 33°36' W 118°09'  
2017-Dec-03 23:36N 33°36' W 118°08'7 0.6
2017-Dec-03 10:48N 33°43' W 118°07'0 0.0
2017-Dec-03 08:36N 33°43' W 118°07'0 0.0
2017-Dec-03 08:06N 33°43' W 118°07'0 0.0
2017-Dec-03 08:00N 33°43' W 118°07'0 0.0
2017-Dec-03 07:25N 33°43' W 118°07'0 0.0
2017-Dec-03 04:05N 33°43' W 118°07'1 1.5
2017-Dec-03 03:28N 33°42' W 118°07'613.1
2017-Dec-03 03:00N 33°36' W 118°08'6 6.0
2017-Dec-03 02:01N 33°42' W 118°05'114.4
2017-Dec-03 01:56N 33°41' W 118°04'3 2.3
2017-Dec-03 00:36N 33°43' W 118°07'613.6
2017-Dec-03 00:08N 33°37' W 118°08'1 0.2
2017-Dec-02 18:14N 33°36' W 118°08'6 4.0
2017-Dec-02 16:51N 33°40' W 118°04'3 2.8
2017-Dec-02 15:42N 33°40' W 118°08'313.8
2017-Dec-02 15:30N 33°37' W 118°08'7 6.7
2017-Dec-02 14:24N 33°44' W 118°06'4 9.5
2017-Dec-02 14:00N 33°41' W 118°05'3 6.2
2017-Dec-02 13:31N 33°43' W 118°07'0 0.3
2017-Dec-02 13:00N 33°43' W 118°07'0 0.0
2017-Dec-02 12:26N 33°43' W 118°07'0 0.0
2017-Dec-02 11:59N 33°43' W 118°07'0 0.0
2017-Dec-02 11:16N 33°43' W 118°07'0 0.0
2017-Dec-02 10:54N 33°43' W 118°07'0 0.0
2017-Dec-02 10:30N 33°43' W 118°07'0 0.0
2017-Dec-02 10:00N 33°43' W 118°07'0 0.0
2017-Dec-02 08:20N 33°43' W 118°07'0 0.0
2017-Dec-02 08:00N 33°43' W 118°07'0 0.0
2017-Dec-02 07:30N 33°43' W 118°07'0 0.0
2017-Dec-02 07:00N 33°43' W 118°07'0 0.0
2017-Dec-02 06:30N 33°43' W 118°07'0 0.0
2017-Dec-02 06:00N 33°43' W 118°07'0 0.0
2017-Dec-02 05:30N 33°43' W 118°07'0 0.0
2017-Dec-02 05:00N 33°43' W 118°07'0 0.0
2017-Dec-02 04:20N 33°43' W 118°07'0 0.0
2017-Dec-02 03:59N 33°43' W 118°07'0 0.9
2017-Dec-02 03:31N 33°43' W 118°07'2 0.7
2017-Dec-02 01:20N 33°44' W 118°06'1 1.3
2017-Dec-02 00:31N 33°43' W 118°07'0 0.0
2017-Dec-02 00:25N 33°43' W 118°07'0 0.0
2017-Dec-02 00:00N 33°43' W 118°07'0 0.2
2017-Dec-01 23:30N 33°43' W 118°07'3 6.6
2017-Dec-01 23:01N 33°41' W 118°04'1 2.7
2017-Dec-01 22:30N 33°39' W 118°04'11 3.9
2017-Dec-01 19:37N 33°44' W 118°16'1 5.5
2017-Dec-01 19:30N 33°43' W 118°16'1 0.8
2017-Dec-01 18:44N 33°44' W 118°16'10 4.5
2017-Dec-01 16:25N 33°36' W 118°08'  
Track history (hours):
 
Tides and Currents Weather Stations Pressure Air Temp Water Temp Dewpoint Dewpoint Depression Visibility Wind Speed Wind Dir Waves Ship Positions

Isabel L

Owner: SO CAL SHIP SERVICES, TERMINAL ISLAND, CA. More information available from US FCC via Universal Licensing System and Coast Guard Vessel Documentation Center.

Last reported at 2017-Dec-11 15:52 UTC. Time now 2017-Dec-12 18:11 UTC.
Position N 33°43' W 118°07'.

Length 28 m; draft 2 m.

Type: Ship (hazmat cat B). MMSI: 367471080.

Date/timePositionNaut miles runAvg speedWind from/ knotsBaromVisibWave heightAir tempDewpointWater temp
2017-Dec-11 15:52N 33°43' W 118°07'411.8
2017-Dec-11 15:30N 33°40' W 118°04'3 0.3
2017-Dec-11 03:14N 33°40' W 118°07'416.0
2017-Dec-11 03:00N 33°36' W 118°08'5 0.2
2017-Dec-09 16:33N 33°40' W 118°04'313.5
2017-Dec-09 16:18N 33°37' W 118°06'2 7.9
2017-Dec-09 16:01N 33°36' W 118°09'0 0.0
2017-Dec-09 15:04N 33°36' W 118°09'6 4.8
2017-Dec-09 13:53N 33°40' W 118°04'4 4.1
2017-Dec-09 12:53N 33°43' W 118°07'0 0.0
2017-Dec-09 12:10N 33°43' W 118°07'0 0.0
2017-Dec-09 09:30N 33°43' W 118°07'0 0.1
2017-Dec-09 09:00N 33°43' W 118°07'0 0.1
2017-Dec-09 08:30N 33°43' W 118°07'0 0.0
2017-Dec-09 08:00N 33°43' W 118°07'0 0.1
2017-Dec-09 07:31N 33°43' W 118°07'0 0.0
2017-Dec-09 07:01N 33°43' W 118°07'0 0.0
2017-Dec-09 06:30N 33°43' W 118°07'8 0.8
2017-Dec-08 20:31N 33°36' W 118°09'0 0.0
2017-Dec-08 20:30N 33°36' W 118°09'  
2017-Dec-03 23:36N 33°36' W 118°08'7 0.6
2017-Dec-03 10:48N 33°43' W 118°07'0 0.0
2017-Dec-03 08:36N 33°43' W 118°07'0 0.0
2017-Dec-03 08:06N 33°43' W 118°07'0 0.0
2017-Dec-03 08:00N 33°43' W 118°07'0 0.0
2017-Dec-03 07:25N 33°43' W 118°07'0 0.0
2017-Dec-03 04:05N 33°43' W 118°07'1 1.5
2017-Dec-03 03:28N 33°42' W 118°07'613.1
2017-Dec-03 03:00N 33°36' W 118°08'6 6.0
2017-Dec-03 02:01N 33°42' W 118°05'114.4
2017-Dec-03 01:56N 33°41' W 118°04'3 2.3
2017-Dec-03 00:36N 33°43' W 118°07'613.6
2017-Dec-03 00:08N 33°37' W 118°08'1 0.2
2017-Dec-02 18:14N 33°36' W 118°08'6 4.0
2017-Dec-02 16:51N 33°40' W 118°04'3 2.8
2017-Dec-02 15:42N 33°40' W 118°08'313.8
2017-Dec-02 15:30N 33°37' W 118°08'7 6.7
2017-Dec-02 14:24N 33°44' W 118°06'4 9.5
2017-Dec-02 14:00N 33°41' W 118°05'3 6.2
2017-Dec-02 13:31N 33°43' W 118°07'0 0.3
2017-Dec-02 13:00N 33°43' W 118°07'0 0.0
2017-Dec-02 12:26N 33°43' W 118°07'0 0.0
2017-Dec-02 11:59N 33°43' W 118°07'0 0.0
2017-Dec-02 11:16N 33°43' W 118°07'0 0.0
2017-Dec-02 10:54N 33°43' W 118°07'0 0.0
2017-Dec-02 10:30N 33°43' W 118°07'0 0.0
2017-Dec-02 10:00N 33°43' W 118°07'0 0.0
2017-Dec-02 08:20N 33°43' W 118°07'0 0.0
2017-Dec-02 08:00N 33°43' W 118°07'0 0.0
2017-Dec-02 07:30N 33°43' W 118°07'0 0.0
2017-Dec-02 07:00N 33°43' W 118°07'0 0.0
2017-Dec-02 06:30N 33°43' W 118°07'0 0.0
2017-Dec-02 06:00N 33°43' W 118°07'0 0.0
2017-Dec-02 05:30N 33°43' W 118°07'0 0.0
2017-Dec-02 05:00N 33°43' W 118°07'0 0.0
2017-Dec-02 04:20N 33°43' W 118°07'0 0.0
2017-Dec-02 03:59N 33°43' W 118°07'0 0.9
2017-Dec-02 03:31N 33°43' W 118°07'2 0.7
2017-Dec-02 01:20N 33°44' W 118°06'1 1.3
2017-Dec-02 00:31N 33°43' W 118°07'0 0.0
2017-Dec-02 00:25N 33°43' W 118°07'0 0.0
2017-Dec-02 00:00N 33°43' W 118°07'0 0.2
2017-Dec-01 23:30N 33°43' W 118°07'3 6.6
2017-Dec-01 23:01N 33°41' W 118°04'1 2.7
2017-Dec-01 22:30N 33°39' W 118°04'11 3.9
2017-Dec-01 19:37N 33°44' W 118°16'1 5.5
2017-Dec-01 19:30N 33°43' W 118°16'1 0.8
2017-Dec-01 18:44N 33°44' W 118°16'10 4.5
2017-Dec-01 16:25N 33°36' W 118°08'  

Dump ship's entire track history